createdAt,value
2023-01-10T00:04:49.346Z,6.00
2023-01-10T00:09:51.875Z,6.30
2023-01-10T00:14:55.069Z,6.10
2023-01-10T00:19:57.506Z,6.30
2023-01-10T00:25:00.120Z,6.40
2023-01-10T00:30:13.751Z,7.20
2023-01-10T00:35:16.333Z,8.00
2023-01-10T00:40:19.148Z,8.30
2023-01-10T00:45:24.179Z,9.20
2023-01-10T00:50:26.782Z,9.80
2023-01-10T00:55:29.319Z,10.10
2023-01-10T01:00:31.947Z,10.00
2023-01-10T01:05:40.070Z,10.10
2023-01-10T01:10:42.644Z,10.00
2023-01-10T01:15:45.445Z,10.10
2023-01-10T01:20:52.736Z,9.60
2023-01-10T01:25:55.946Z,9.10
2023-01-10T01:30:58.478Z,8.40
2023-01-10T01:36:01.216Z,8.30
2023-01-10T01:41:04.932Z,8.40
2023-01-10T01:46:07.511Z,8.30
2023-01-10T01:51:22.618Z,8.60
2023-01-10T01:56:37.246Z,8.20
2023-01-10T02:01:41.303Z,8.30
2023-01-10T02:06:46.256Z,7.80
2023-01-10T02:11:49.338Z,7.90
2023-01-10T02:16:52.890Z,8.00
2023-01-10T02:22:17.089Z,8.50
2023-01-10T02:27:42.231Z,8.60
2023-01-10T02:33:04.642Z,8.80
2023-01-10T02:38:34.952Z,7.90
2023-01-10T02:43:51.520Z,8.20
2023-01-10T02:48:55.173Z,8.70
2023-01-10T02:54:00.829Z,8.60
2023-01-10T02:59:40.741Z,8.10
2023-01-10T03:05:04.711Z,7.90
2023-01-10T03:10:28.135Z,7.90
2023-01-10T03:15:36.859Z,8.10
2023-01-10T03:20:42.364Z,8.30
2023-01-10T03:25:46.652Z,8.70
2023-01-10T03:30:54.772Z,9.10
2023-01-10T03:36:18.066Z,9.20
2023-01-10T03:41:41.395Z,9.10
2023-01-10T03:46:54.822Z,9.00
2023-01-10T03:51:58.879Z,8.80
2023-01-10T03:57:02.815Z,8.50
2023-01-10T04:02:05.604Z,7.60
2023-01-10T04:07:08.349Z,6.70
2023-01-10T04:12:10.922Z,6.10
2023-01-10T04:17:15.071Z,5.90
2023-01-10T04:22:17.493Z,5.90
2023-01-10T04:27:20.433Z,5.70
2023-01-10T04:32:22.940Z,6.20
2023-01-10T04:37:25.449Z,6.60
2023-01-10T04:42:28.019Z,7.20
2023-01-10T04:47:30.504Z,7.30
2023-01-10T04:52:33.173Z,7.60
2023-01-10T04:57:35.851Z,8.30
2023-01-10T05:02:44.470Z,8.50
2023-01-10T05:07:47.595Z,8.70
2023-01-10T05:12:50.158Z,9.10
2023-01-10T05:17:58.613Z,9.60
2023-01-10T05:23:01.144Z,10.00
2023-01-10T05:28:03.769Z,10.20
2023-01-10T05:33:06.597Z,10.20
2023-01-10T05:38:09.112Z,10.10
2023-01-10T05:43:12.240Z,10.30
2023-01-10T05:48:14.746Z,11.20
2023-01-10T05:53:17.675Z,10.50
2023-01-10T05:58:20.153Z,10.00
2023-01-10T06:03:23.688Z,9.80
2023-01-10T06:08:26.231Z,9.60
2023-01-10T06:13:28.689Z,9.90
2023-01-10T06:18:31.290Z,10.00
2023-01-10T06:23:33.808Z,10.00
2023-01-10T06:28:36.448Z,10.10
2023-01-10T06:33:39.055Z,10.00
2023-01-10T06:38:41.486Z,9.80
2023-01-10T06:43:45.955Z,9.30
2023-01-10T06:48:49.903Z,9.50
2023-01-10T06:53:52.547Z,9.80
2023-01-10T06:58:55.027Z,9.30
2023-01-10T07:03:57.671Z,8.40
2023-01-10T07:09:00.307Z,9.40
2023-01-10T07:14:03.224Z,8.50
2023-01-10T07:19:05.894Z,7.50
2023-01-10T07:24:08.929Z,6.80
2023-01-10T07:29:11.528Z,7.80
2023-01-10T07:34:14.430Z,7.80
2023-01-10T07:39:17.018Z,7.60
2023-01-10T07:44:19.750Z,7.10
2023-01-10T07:49:22.540Z,7.50
2023-01-10T07:54:25.498Z,7.60
2023-01-10T07:59:27.987Z,7.80
2023-01-10T08:04:30.600Z,8.50
2023-01-10T08:09:33.178Z,9.10
2023-01-10T08:14:35.702Z,9.30
2023-01-10T08:19:38.264Z,9.00
2023-01-10T08:24:40.838Z,9.40
2023-01-10T08:29:43.448Z,10.30
2023-01-10T08:34:46.033Z,10.20
2023-01-10T08:39:48.577Z,10.20
2023-01-10T08:44:51.117Z,11.00
2023-01-10T08:49:53.608Z,11.30
2023-01-10T08:54:56.163Z,11.00
2023-01-10T08:59:58.729Z,10.70
2023-01-10T09:05:01.301Z,10.80
2023-01-10T09:10:04.648Z,10.70
2023-01-10T09:15:07.815Z,10.80
2023-01-10T09:20:10.921Z,10.60
2023-01-10T09:25:13.429Z,10.60
2023-01-10T09:30:16.501Z,10.90
2023-01-10T09:35:19.135Z,11.20
2023-01-10T09:40:35.997Z,11.20
2023-01-10T09:46:00.254Z,11.10
2023-01-10T09:51:18.622Z,11.20
2023-01-10T09:56:21.430Z,10.90
2023-01-10T10:01:29.500Z,10.40
2023-01-10T10:06:34.633Z,10.80
2023-01-10T10:11:50.407Z,11.10
2023-01-10T10:17:19.508Z,10.90
2023-01-10T10:22:48.603Z,10.80
2023-01-10T10:28:11.965Z,10.60
2023-01-10T10:33:30.601Z,10.80
2023-01-10T10:43:39.897Z,10.50
2023-01-10T10:48:56.952Z,10.80
2023-01-10T10:53:59.870Z,10.90
2023-01-10T10:59:04.616Z,10.60
2023-01-10T11:04:12.588Z,10.50
2023-01-10T11:09:33.452Z,10.30
2023-01-10T11:14:48.940Z,10.90
2023-01-10T11:20:17.714Z,11.10
2023-01-10T11:25:22.911Z,11.10
2023-01-10T11:30:29.039Z,11.10
2023-01-10T11:35:37.825Z,10.80
2023-01-10T11:41:03.900Z,10.90
2023-01-10T11:46:18.354Z,11.10
2023-01-10T11:51:29.067Z,10.50
2023-01-10T11:56:36.058Z,10.80
2023-01-10T12:01:45.787Z,11.00
2023-01-10T12:06:52.183Z,10.90
2023-01-10T12:12:03.724Z,11.30
2023-01-10T12:17:06.287Z,11.60
2023-01-10T12:22:14.936Z,11.20
2023-01-10T12:27:18.681Z,11.20
2023-01-10T12:32:26.426Z,11.20
2023-01-10T12:37:37.422Z,11.10
2023-01-10T12:43:04.125Z,11.40
2023-01-10T12:48:16.964Z,10.90
2023-01-10T12:53:19.427Z,10.60
2023-01-10T12:58:36.030Z,10.40
2023-01-10T13:03:39.576Z,10.20
2023-01-10T13:08:43.751Z,10.20
2023-01-10T13:13:53.350Z,10.90
2023-01-10T13:19:11.240Z,10.90
2023-01-10T13:24:24.520Z,10.80
2023-01-10T13:29:31.053Z,11.00
2023-01-10T13:34:35.957Z,11.30
2023-01-10T13:39:41.954Z,11.80
2023-01-10T13:45:10.226Z,11.30
2023-01-10T13:50:33.956Z,11.50
2023-01-10T13:55:39.474Z,10.70
2023-01-10T14:01:08.793Z,10.40
2023-01-10T14:06:29.686Z,10.50
2023-01-10T14:11:44.501Z,10.10
2023-01-10T14:16:51.004Z,9.60
2023-01-10T14:21:57.972Z,9.20
2023-01-10T14:27:02.208Z,8.80
2023-01-10T14:32:15.348Z,8.50
2023-01-10T14:37:32.269Z,7.50
2023-01-10T14:42:36.251Z,7.80
2023-01-10T14:47:39.124Z,7.90
2023-01-10T14:52:42.932Z,8.00
2023-01-10T14:58:01.160Z,8.60
2023-01-10T15:03:04.720Z,8.50
2023-01-10T15:08:26.149Z,7.30
2023-01-10T15:13:31.399Z,8.40
2023-01-10T15:18:41.562Z,9.50
2023-01-10T15:23:46.635Z,9.80
2023-01-10T15:29:14.466Z,9.90
2023-01-10T15:34:26.436Z,10.10
2023-01-10T15:39:39.261Z,10.30
2023-01-10T15:44:52.437Z,10.00
2023-01-10T15:49:55.355Z,9.70
2023-01-10T15:54:57.984Z,10.00
2023-01-10T16:00:00.811Z,10.00
2023-01-10T16:05:18.109Z,10.20
2023-01-10T16:10:27.129Z,10.00
2023-01-10T16:15:35.912Z,10.00
2023-01-10T16:20:45.920Z,9.80
2023-01-10T16:25:56.094Z,10.40
2023-01-10T16:30:58.643Z,10.80
2023-01-10T16:36:01.550Z,10.40
2023-01-10T16:41:22.857Z,9.90
2023-01-10T16:46:25.377Z,9.80
2023-01-10T16:51:32.289Z,9.60
2023-01-10T16:56:34.781Z,9.40
2023-01-10T17:01:48.268Z,8.70
2023-01-10T17:06:51.037Z,8.20
2023-01-10T17:12:06.736Z,8.60
2023-01-10T17:17:11.076Z,9.00
2023-01-10T17:22:14.069Z,9.30
2023-01-10T17:27:16.753Z,9.60
2023-01-10T17:32:19.238Z,9.90
2023-01-10T17:37:21.677Z,9.80
2023-01-10T17:42:24.309Z,9.60
2023-01-10T17:47:26.866Z,9.50
2023-01-10T17:52:29.444Z,9.10
2023-01-10T18:07:40.722Z,6.60
2023-01-10T18:12:43.316Z,6.40
2023-01-10T18:17:45.841Z,7.20
2023-01-10T18:28:09.499Z,8.60
2023-01-10T18:33:12.037Z,9.20
2023-01-10T18:38:14.510Z,9.50
2023-01-10T18:43:17.159Z,9.70
2023-01-10T18:48:21.338Z,9.40
2023-01-10T18:53:24.195Z,9.30
2023-01-10T18:58:28.686Z,9.30
2023-01-10T19:03:33.153Z,9.80
2023-01-10T19:08:36.514Z,9.90
2023-01-10T19:13:39.189Z,10.10
2023-01-10T19:18:43.060Z,10.20
2023-01-10T19:23:47.964Z,10.10
2023-01-10T19:28:50.702Z,9.60
2023-01-10T19:33:54.019Z,9.10
2023-01-10T19:38:57.877Z,9.10
2023-01-10T19:44:03.870Z,8.90
2023-01-10T19:49:08.123Z,8.70
2023-01-10T19:54:10.881Z,8.60
2023-01-10T19:59:17.734Z,7.90
2023-01-10T20:04:20.334Z,7.50
2023-01-10T20:09:22.862Z,7.20
2023-01-10T20:14:25.632Z,6.90
2023-01-10T20:19:28.204Z,6.90
2023-01-10T20:24:30.734Z,7.00
2023-01-10T20:29:34.384Z,7.00
2023-01-10T20:34:37.077Z,6.80
2023-01-10T20:39:39.809Z,6.60
2023-01-10T20:44:42.351Z,6.50
2023-01-10T20:49:44.843Z,6.50
2023-01-10T20:54:47.326Z,6.50
2023-01-10T20:59:49.848Z,6.70
2023-01-10T21:04:52.428Z,6.80
2023-01-10T21:09:54.909Z,6.60
2023-01-10T21:14:57.512Z,6.60
2023-01-10T21:19:59.983Z,6.70
2023-01-10T21:25:02.606Z,6.80
2023-01-10T21:30:06.335Z,7.30
2023-01-10T21:35:08.991Z,8.50
2023-01-10T21:40:11.806Z,9.00
2023-01-10T21:45:14.755Z,9.20
2023-01-10T21:50:19.623Z,8.50
2023-01-10T21:55:23.929Z,7.70
2023-01-10T22:00:26.528Z,7.30
2023-01-10T22:05:29.258Z,7.10
2023-01-10T22:10:31.647Z,7.00
2023-01-10T22:15:34.359Z,6.90
2023-01-10T22:20:37.064Z,6.90
2023-01-10T22:25:39.628Z,7.00
2023-01-10T22:30:43.426Z,7.00
2023-01-10T22:35:48.530Z,6.90
2023-01-10T22:40:51.523Z,6.90
2023-01-10T22:45:56.242Z,6.90
2023-01-10T22:50:59.672Z,6.90
2023-01-10T22:56:07.338Z,6.80
2023-01-10T23:01:09.848Z,7.00
2023-01-10T23:06:12.906Z,6.80
2023-01-10T23:11:18.480Z,6.60
2023-01-10T23:16:28.509Z,6.40
2023-01-10T23:21:31.431Z,6.60
2023-01-10T23:26:37.097Z,6.60
2023-01-10T23:31:39.713Z,6.70
2023-01-10T23:36:42.494Z,6.50
2023-01-10T23:41:45.129Z,6.40
2023-01-10T23:46:47.531Z,6.30
2023-01-10T23:51:53.191Z,6.40
2023-01-10T23:56:55.829Z,5.80
